createdAt,value
2023-01-27T00:02:39.685Z,25.98
2023-01-27T00:05:25.788Z,27.25
2023-01-27T00:08:11.485Z,27.50
2023-01-27T00:11:19.447Z,26.40
2023-01-27T00:14:16.978Z,26.55
2023-01-27T00:17:02.478Z,28.17
2023-01-27T00:19:48.025Z,27.48
2023-01-27T00:22:52.479Z,28.08
2023-01-27T00:25:38.183Z,29.67
2023-01-27T00:28:25.337Z,27.30
2023-01-27T00:31:32.868Z,28.73
2023-01-27T00:34:18.490Z,27.08
2023-01-27T00:37:03.964Z,25.48
2023-01-27T00:39:49.274Z,26.95
2023-01-27T00:42:35.283Z,27.17
2023-01-27T00:45:39.084Z,27.83
2023-01-27T00:48:24.855Z,28.95
2023-01-27T00:51:11.572Z,28.08
2023-01-27T00:53:59.322Z,27.80
2023-01-27T00:56:45.061Z,29.48
2023-01-27T00:59:31.797Z,29.48
2023-01-27T01:02:17.462Z,28.75
2023-01-27T01:05:03.558Z,30.35
2023-01-27T01:07:49.150Z,29.70
2023-01-27T01:10:34.512Z,28.50
2023-01-27T01:13:21.632Z,30.30
2023-01-27T01:16:20.137Z,30.92
2023-01-27T01:19:05.978Z,30.20
2023-01-27T01:21:51.513Z,28.05
2023-01-27T01:24:37.205Z,28.27
2023-01-27T01:27:22.870Z,28.52
2023-01-27T01:30:09.788Z,27.33
2023-01-27T01:32:56.426Z,27.60
2023-01-27T01:35:42.578Z,28.13
2023-01-27T01:38:28.377Z,28.42
2023-01-27T01:41:18.498Z,27.13
2023-01-27T01:44:32.159Z,28.30
2023-01-27T01:50:04.434Z,25.80
2023-01-27T01:52:50.115Z,27.40
2023-01-27T01:55:39.679Z,27.90
2023-01-27T01:58:28.231Z,24.80
2023-01-27T02:01:16.795Z,25.98
2023-01-27T02:04:09.586Z,25.58
2023-01-27T02:07:12.715Z,24.63
2023-01-27T02:10:00.506Z,24.60
2023-01-27T02:12:46.198Z,24.40
2023-01-27T02:15:32.551Z,24.13
2023-01-27T02:18:18.280Z,21.77
2023-01-27T02:21:04.712Z,24.00
2023-01-27T02:24:10.817Z,23.55
2023-01-27T02:26:56.849Z,22.58
2023-01-27T02:29:42.594Z,22.00
2023-01-27T02:32:28.676Z,25.15
2023-01-27T02:35:21.504Z,22.20
2023-01-27T02:38:09.137Z,23.20
2023-01-27T02:40:59.663Z,23.75
2023-01-27T02:43:45.406Z,22.92
2023-01-27T02:46:31.168Z,24.35
2023-01-27T02:49:16.859Z,23.48
2023-01-27T02:52:02.451Z,23.45
2023-01-27T02:54:48.028Z,25.33
2023-01-27T02:57:33.197Z,24.25
2023-01-27T03:00:22.083Z,23.70
2023-01-27T03:03:07.808Z,23.88
2023-01-27T03:05:53.572Z,25.95
2023-01-27T03:08:38.952Z,24.10
2023-01-27T03:11:42.543Z,24.80
2023-01-27T03:14:46.720Z,25.55
2023-01-27T03:17:51.508Z,24.65
2023-01-27T03:20:37.204Z,24.58
2023-01-27T03:23:22.607Z,24.80
2023-01-27T03:26:09.864Z,25.08
2023-01-27T03:29:14.586Z,25.40
2023-01-27T03:32:00.220Z,27.33
2023-01-27T03:34:45.707Z,25.75
2023-01-27T03:37:50.635Z,24.23
2023-01-27T03:40:54.729Z,27.05
2023-01-27T03:43:58.773Z,25.08
2023-01-27T03:46:44.553Z,25.35
2023-01-27T03:49:30.309Z,25.23
2023-01-27T03:52:16.051Z,27.35
2023-01-27T03:55:01.560Z,26.52
2023-01-27T03:57:47.401Z,25.63
2023-01-27T04:00:33.579Z,24.52
2023-01-27T04:03:39.345Z,24.42
2023-01-27T04:06:47.999Z,26.90
2023-01-27T04:09:36.323Z,25.27
2023-01-27T04:12:22.118Z,25.40
2023-01-27T04:15:08.659Z,24.83
2023-01-27T04:17:54.129Z,25.27
2023-01-27T04:20:39.448Z,25.92
2023-01-27T04:23:25.021Z,24.73
2023-01-27T04:26:10.359Z,24.90
2023-01-27T04:28:56.142Z,22.98
2023-01-27T04:31:42.538Z,23.73
2023-01-27T04:34:28.576Z,22.67
2023-01-27T04:37:14.040Z,23.30
2023-01-27T04:39:59.564Z,24.58
2023-01-27T04:42:44.821Z,25.60
2023-01-27T04:45:30.366Z,24.40
2023-01-27T04:48:15.917Z,25.23
2023-01-27T04:51:01.581Z,22.88
2023-01-27T04:53:47.801Z,22.65
2023-01-27T04:56:55.898Z,22.27
2023-01-27T04:59:41.571Z,21.05
2023-01-27T05:02:27.287Z,21.95
2023-01-27T05:05:13.587Z,22.10
2023-01-27T05:08:10.610Z,20.77
2023-01-27T05:10:55.909Z,20.25
2023-01-27T05:13:41.533Z,20.63
2023-01-27T05:16:27.914Z,19.65
2023-01-27T05:19:13.398Z,21.10
2023-01-27T05:21:58.825Z,20.58
2023-01-27T05:24:48.005Z,24.15
2023-01-27T05:27:33.764Z,24.13
2023-01-27T05:30:19.815Z,20.73
2023-01-27T05:33:05.560Z,20.90
2023-01-27T05:35:50.956Z,19.33
2023-01-27T05:38:36.424Z,19.85
2023-01-27T05:41:21.891Z,18.70
2023-01-27T05:44:11.241Z,19.70
2023-01-27T05:46:56.792Z,17.83
2023-01-27T05:49:42.071Z,19.17
2023-01-27T05:52:27.479Z,18.70
2023-01-27T05:55:13.125Z,19.42
2023-01-27T05:57:58.780Z,19.13
2023-01-27T06:00:45.192Z,17.85
2023-01-27T06:03:30.961Z,17.95
2023-01-27T06:06:20.480Z,16.35
2023-01-27T06:09:06.598Z,16.48
2023-01-27T06:11:55.109Z,17.52
2023-01-27T06:14:40.985Z,17.65
2023-01-27T06:17:26.991Z,16.60
2023-01-27T06:20:13.065Z,16.85
2023-01-27T06:22:59.217Z,19.88
2023-01-27T06:25:48.172Z,19.50
2023-01-27T06:28:34.436Z,21.50
2023-01-27T06:31:22.059Z,20.42
2023-01-27T06:34:07.660Z,20.52
2023-01-27T06:36:54.566Z,20.73
2023-01-27T06:39:40.355Z,23.25
2023-01-27T06:42:25.843Z,21.75
2023-01-27T06:45:13.409Z,21.15
2023-01-27T06:48:01.542Z,20.77
2023-01-27T06:50:47.579Z,20.92
2023-01-27T06:53:34.991Z,21.42
2023-01-27T06:56:21.058Z,21.85
2023-01-27T06:59:07.317Z,21.45
2023-01-27T07:01:53.075Z,21.67
2023-01-27T07:04:39.013Z,21.63
2023-01-27T07:07:24.538Z,21.48
2023-01-27T07:10:10.802Z,22.05
2023-01-27T07:13:09.730Z,21.23
2023-01-27T07:15:56.376Z,25.48
2023-01-27T07:18:42.135Z,23.23
2023-01-27T07:21:27.595Z,22.48
2023-01-27T07:24:13.508Z,22.35
2023-01-27T07:26:59.533Z,22.10
2023-01-27T07:29:45.341Z,24.20
2023-01-27T07:32:31.560Z,23.75
2023-01-27T07:35:18.106Z,23.73
2023-01-27T07:38:04.639Z,24.58
2023-01-27T07:40:50.291Z,25.27
2023-01-27T07:43:36.168Z,25.20
2023-01-27T07:46:21.916Z,25.98
2023-01-27T07:49:07.254Z,26.45
2023-01-27T07:51:53.827Z,28.38
2023-01-27T07:54:39.315Z,28.73
2023-01-27T07:57:24.805Z,27.55
2023-01-27T08:00:15.465Z,27.80
2023-01-27T08:03:02.980Z,29.70
2023-01-27T08:05:48.585Z,30.77
2023-01-27T08:08:36.571Z,29.50
2023-01-27T08:11:23.463Z,29.63
2023-01-27T08:14:09.021Z,29.13
2023-01-27T08:16:54.543Z,27.83
2023-01-27T08:19:39.928Z,27.08
2023-01-27T08:22:25.270Z,26.98
2023-01-27T08:25:10.547Z,29.00
2023-01-27T08:27:56.854Z,27.55
2023-01-27T08:30:42.528Z,27.67
2023-01-27T08:33:28.409Z,27.20
2023-01-27T08:36:17.425Z,29.58
2023-01-27T08:39:03.243Z,28.88
2023-01-27T08:41:48.979Z,29.88
2023-01-27T08:44:34.450Z,29.77
2023-01-27T08:47:19.805Z,27.25
2023-01-27T08:50:05.732Z,27.48
2023-01-27T08:52:51.424Z,31.08
2023-01-27T08:55:36.750Z,29.45
2023-01-27T08:58:23.767Z,27.73
2023-01-27T09:01:10.120Z,26.52
2023-01-27T09:03:55.510Z,27.58
2023-01-27T09:06:41.044Z,27.35
2023-01-27T09:09:26.469Z,25.98
2023-01-27T09:12:11.951Z,25.27
2023-01-27T09:14:58.331Z,25.73
2023-01-27T09:17:44.777Z,25.80
2023-01-27T09:20:30.647Z,26.90
2023-01-27T09:23:15.929Z,25.42
2023-01-27T09:26:01.467Z,24.02
2023-01-27T09:28:46.788Z,25.88
2023-01-27T09:31:32.633Z,24.83
2023-01-27T09:34:19.464Z,24.58
2023-01-27T09:37:12.803Z,24.10
2023-01-27T09:40:09.773Z,25.63
2023-01-27T09:43:13.432Z,26.48
2023-01-27T09:45:58.092Z,23.85
2023-01-27T09:48:53.995Z,26.48
2023-01-27T09:51:47.558Z,25.38
2023-01-27T09:54:52.269Z,26.80
2023-01-27T09:57:34.668Z,25.52
2023-01-27T10:03:15.912Z,24.80
2023-01-27T10:05:48.666Z,26.17
2023-01-27T10:08:54.420Z,26.75
2023-01-27T10:11:27.392Z,26.10
2023-01-27T10:14:25.423Z,25.65
2023-01-27T10:17:24.291Z,24.20
2023-01-27T10:20:16.989Z,24.08
2023-01-27T10:22:52.439Z,24.98
2023-01-27T10:25:44.968Z,21.95
2023-01-27T10:31:02.325Z,21.45
2023-01-27T10:33:52.222Z,21.52
2023-01-27T10:36:41.275Z,21.75
2023-01-27T10:39:44.250Z,22.40
2023-01-27T10:42:37.085Z,18.10
2023-01-27T10:45:16.573Z,16.90
2023-01-27T10:48:25.811Z,16.90
2023-01-27T10:51:04.123Z,17.63
2023-01-27T10:54:01.386Z,17.30
2023-01-27T10:56:45.515Z,17.63
2023-01-27T10:59:46.396Z,18.67
2023-01-27T11:02:52.072Z,18.50
2023-01-27T11:05:37.686Z,16.70
2023-01-27T11:08:23.724Z,16.95
2023-01-27T11:11:10.271Z,16.85
2023-01-27T11:13:38.802Z,16.15
2023-01-27T11:16:14.795Z,14.73
2023-01-27T11:18:46.677Z,16.65
2023-01-27T11:21:21.056Z,15.18
2023-01-27T11:23:57.019Z,16.45
2023-01-27T11:26:52.725Z,16.25
2023-01-27T11:29:55.283Z,16.10
2023-01-27T11:32:50.092Z,16.88
2023-01-27T11:35:17.583Z,16.50
2023-01-27T11:37:51.246Z,17.60
2023-01-27T11:40:39.317Z,18.25
2023-01-27T11:43:06.547Z,16.27
2023-01-27T11:45:38.219Z,13.95
2023-01-27T11:48:14.299Z,13.55
2023-01-27T11:50:43.056Z,16.17
2023-01-27T11:53:32.212Z,14.85
2023-01-27T11:56:08.717Z,14.85
2023-01-27T11:59:02.679Z,14.88
2023-01-27T12:01:48.026Z,14.52
2023-01-27T12:05:09.979Z,13.13
2023-01-27T12:07:46.045Z,9.77
2023-01-27T12:10:38.862Z,9.75
2023-01-27T12:13:25.674Z,10.38
2023-01-27T12:16:05.092Z,10.55
2023-01-27T12:18:38.225Z,10.57
2023-01-27T12:21:08.930Z,9.35
2023-01-27T12:23:52.732Z,9.50
2023-01-27T12:26:33.943Z,9.32
2023-01-27T12:29:16.842Z,8.55
2023-01-27T12:31:52.517Z,8.35
2023-01-27T12:34:39.109Z,9.32
2023-01-27T12:37:10.705Z,8.70
2023-01-27T12:39:49.075Z,9.80
2023-01-27T12:42:40.789Z,8.40
2023-01-27T12:45:23.295Z,6.87
2023-01-27T12:48:14.691Z,9.93
2023-01-27T12:51:13.986Z,8.70
2023-01-27T12:53:44.243Z,7.82
2023-01-27T12:56:22.674Z,8.07
2023-01-27T12:58:58.466Z,8.23
2023-01-27T13:01:37.488Z,8.07
2023-01-27T13:04:20.180Z,9.02
2023-01-27T13:06:54.461Z,7.90
2023-01-27T13:09:35.108Z,9.02
2023-01-27T13:12:24.575Z,8.90
2023-01-27T13:15:21.845Z,7.80
2023-01-27T13:17:56.258Z,7.97
2023-01-27T13:20:33.780Z,7.10
2023-01-27T13:23:10.413Z,7.10
2023-01-27T13:25:44.663Z,5.80
2023-01-27T13:28:20.678Z,5.47
2023-01-27T13:30:54.356Z,6.50
2023-01-27T13:33:48.623Z,5.82
2023-01-27T13:36:58.389Z,5.00
2023-01-27T13:39:35.050Z,5.45
2023-01-27T13:42:05.220Z,6.57
2023-01-27T13:44:57.222Z,6.45
2023-01-27T13:47:29.838Z,6.00
2023-01-27T13:50:20.749Z,5.90
2023-01-27T13:52:53.079Z,5.55
2023-01-27T13:55:43.882Z,5.55
2023-01-27T13:58:23.141Z,4.68
2023-01-27T14:01:08.395Z,5.15
2023-01-27T14:04:14.106Z,4.65
2023-01-27T14:07:01.497Z,4.70
2023-01-27T14:09:43.384Z,4.63
2023-01-27T14:12:22.061Z,4.50
2023-01-27T14:15:30.073Z,4.55
2023-01-27T14:18:05.701Z,7.10
2023-01-27T14:20:44.680Z,6.40
2023-01-27T14:23:50.846Z,7.22
2023-01-27T14:26:26.598Z,6.13
2023-01-27T14:29:11.716Z,7.80
2023-01-27T14:32:06.385Z,7.93
2023-01-27T14:35:00.876Z,8.00
2023-01-27T14:37:59.099Z,6.60
2023-01-27T14:40:37.284Z,5.47
2023-01-27T14:43:37.160Z,6.00
2023-01-27T14:46:48.658Z,6.57
2023-01-27T14:49:38.759Z,6.28
2023-01-27T14:52:56.524Z,6.13
2023-01-27T14:55:59.985Z,7.45
2023-01-27T14:59:08.661Z,8.57
2023-01-27T15:02:40.142Z,14.20
2023-01-27T15:06:01.454Z,15.00
2023-01-27T15:09:21.217Z,14.77
2023-01-27T15:12:32.856Z,13.05
2023-01-27T15:15:31.055Z,7.53
2023-01-27T15:18:16.188Z,5.38
2023-01-27T15:21:07.459Z,5.32
2023-01-27T15:23:49.982Z,3.35
2023-01-27T15:26:23.778Z,3.78
2023-01-27T15:28:51.681Z,5.70
2023-01-27T15:31:18.880Z,6.15
2023-01-27T15:33:52.101Z,6.25
2023-01-27T15:36:28.394Z,5.25
2023-01-27T15:39:10.429Z,4.57
2023-01-27T15:41:52.322Z,6.43
2023-01-27T15:44:19.732Z,4.22
2023-01-27T15:46:52.849Z,7.93
2023-01-27T15:49:36.368Z,5.55
2023-01-27T15:52:29.266Z,5.47
2023-01-27T15:55:01.254Z,3.35
2023-01-27T15:57:35.122Z,4.35
2023-01-27T16:00:28.834Z,3.83
2023-01-27T16:03:03.052Z,3.58
2023-01-27T16:05:45.808Z,5.70
2023-01-27T16:08:16.257Z,3.72
2023-01-27T16:10:45.258Z,4.15
2023-01-27T16:13:20.902Z,4.43
2023-01-27T16:15:48.134Z,4.43
2023-01-27T16:18:15.307Z,5.75
2023-01-27T16:20:42.451Z,6.93
2023-01-27T16:23:23.939Z,5.07
2023-01-27T16:26:20.688Z,4.17
2023-01-27T16:28:52.346Z,5.65
2023-01-27T16:31:24.811Z,4.93
2023-01-27T16:34:00.249Z,3.80
2023-01-27T16:36:36.664Z,6.40
2023-01-27T16:39:50.280Z,7.00
2023-01-27T16:42:18.123Z,4.25
2023-01-27T16:44:51.905Z,3.50
2023-01-27T16:47:26.999Z,4.65
2023-01-27T16:49:59.834Z,3.95
2023-01-27T16:52:41.634Z,3.63
2023-01-27T16:55:29.891Z,3.67
2023-01-27T16:58:00.352Z,4.15
2023-01-27T17:00:34.687Z,3.72
2023-01-27T17:03:16.459Z,3.10
2023-01-27T17:05:43.904Z,4.55
2023-01-27T17:08:35.410Z,3.45
2023-01-27T17:11:29.431Z,4.13
2023-01-27T17:14:03.147Z,5.45
2023-01-27T17:16:36.510Z,7.05
2023-01-27T17:19:17.724Z,5.00
2023-01-27T17:21:55.783Z,5.80
2023-01-27T17:24:30.389Z,5.30
2023-01-27T17:27:22.671Z,4.65
2023-01-27T17:29:55.368Z,3.05
2023-01-27T17:32:27.674Z,2.90
2023-01-27T17:34:58.763Z,3.70
2023-01-27T17:37:26.837Z,3.00
2023-01-27T17:40:13.200Z,2.67
2023-01-27T17:42:41.023Z,2.97
2023-01-27T17:45:34.169Z,3.08
2023-01-27T17:48:02.205Z,3.30
2023-01-27T17:50:38.213Z,3.17
2023-01-27T17:53:11.773Z,2.22
2023-01-27T17:55:39.401Z,2.63
2023-01-27T17:58:17.715Z,3.42
2023-01-27T18:00:46.475Z,2.45
2023-01-27T18:03:26.853Z,3.75
2023-01-27T18:05:55.235Z,3.65
2023-01-27T18:08:25.033Z,2.78
2023-01-27T18:10:52.801Z,2.45
2023-01-27T18:13:20.047Z,1.90
2023-01-27T18:16:24.496Z,2.80
2023-01-27T18:19:09.966Z,3.30
2023-01-27T18:21:37.331Z,4.15
2023-01-27T18:24:21.139Z,4.43
2023-01-27T18:26:53.306Z,3.35
2023-01-27T18:29:30.782Z,4.57
2023-01-27T18:31:58.793Z,4.55
2023-01-27T18:34:32.851Z,4.25
2023-01-27T18:37:23.619Z,4.60
2023-01-27T18:39:50.893Z,4.47
2023-01-27T18:42:23.124Z,5.10
2023-01-27T18:47:18.571Z,8.60
2023-01-27T18:50:06.493Z,4.32
2023-01-27T18:52:33.965Z,3.13
2023-01-27T18:55:30.584Z,3.80
2023-01-27T18:57:59.956Z,4.47
2023-01-27T19:00:36.024Z,3.97
2023-01-27T19:03:04.798Z,3.75
2023-01-27T19:05:35.654Z,4.55
2023-01-27T19:08:03.870Z,5.00
2023-01-27T19:10:35.100Z,4.32
2023-01-27T19:13:04.073Z,4.50
2023-01-27T19:15:41.601Z,3.67
2023-01-27T19:18:37.633Z,5.32
2023-01-27T19:21:05.263Z,8.23
2023-01-27T19:23:32.851Z,6.97
2023-01-27T19:26:03.387Z,6.82
2023-01-27T19:28:40.667Z,6.60
2023-01-27T19:31:08.045Z,7.72
2023-01-27T19:33:37.352Z,6.10
2023-01-27T19:36:40.629Z,4.60
2023-01-27T19:39:07.566Z,4.00
2023-01-27T19:41:35.009Z,3.47
2023-01-27T19:44:02.144Z,4.30
2023-01-27T19:46:30.042Z,5.70
2023-01-27T19:48:57.125Z,6.65
2023-01-27T19:51:24.782Z,6.45
2023-01-27T19:53:51.839Z,6.65
2023-01-27T19:56:24.285Z,7.75
2023-01-27T19:58:55.122Z,7.15
2023-01-27T20:01:25.250Z,7.25
2023-01-27T20:03:53.868Z,7.90
2023-01-27T20:06:27.363Z,7.03
2023-01-27T20:08:57.178Z,7.65
2023-01-27T20:11:38.370Z,6.53
2023-01-27T20:14:19.067Z,6.20
2023-01-27T20:16:47.186Z,6.50
2023-01-27T20:19:15.991Z,6.93
2023-01-27T20:21:45.479Z,5.88
2023-01-27T20:24:18.498Z,5.85
2023-01-27T20:26:46.935Z,6.95
2023-01-27T20:29:14.422Z,7.90
2023-01-27T20:31:44.102Z,7.63
2023-01-27T20:34:11.293Z,5.15
2023-01-27T20:36:38.431Z,4.93
2023-01-27T20:39:05.592Z,4.10
2023-01-27T20:41:32.824Z,5.65
2023-01-27T20:44:00.664Z,5.93
2023-01-27T20:46:29.496Z,4.47
2023-01-27T20:48:58.907Z,5.95
2023-01-27T20:51:28.639Z,5.50
2023-01-27T20:53:55.795Z,6.85
2023-01-27T20:56:24.142Z,7.97
2023-01-27T20:58:54.337Z,7.13
2023-01-27T21:01:23.702Z,9.40
2023-01-27T21:03:51.268Z,9.35
2023-01-27T21:06:22.084Z,10.38
2023-01-27T21:08:49.695Z,10.30
2023-01-27T21:11:21.334Z,11.88
2023-01-27T21:13:49.979Z,11.10
2023-01-27T21:16:17.295Z,10.98
2023-01-27T21:18:47.360Z,12.27
2023-01-27T21:21:26.952Z,12.05
2023-01-27T21:23:55.463Z,12.80
2023-01-27T21:26:23.783Z,11.00
2023-01-27T21:28:51.318Z,9.73
2023-01-27T21:31:21.763Z,6.88
2023-01-27T21:33:50.238Z,7.40
2023-01-27T21:36:19.214Z,7.63
2023-01-27T21:38:46.576Z,6.97
2023-01-27T21:41:36.433Z,5.90
2023-01-27T21:44:34.406Z,7.05
2023-01-27T21:47:03.804Z,6.15
2023-01-27T21:49:34.368Z,7.30
2023-01-27T21:52:01.434Z,6.32
2023-01-27T21:54:28.769Z,5.28
2023-01-27T21:56:55.992Z,6.95
2023-01-27T21:59:25.672Z,6.65
2023-01-27T22:01:55.398Z,7.00
2023-01-27T22:04:22.631Z,7.60
2023-01-27T22:06:49.780Z,7.30
2023-01-27T22:09:17.055Z,6.70
2023-01-27T22:11:44.324Z,6.82
2023-01-27T22:14:11.740Z,6.55
2023-01-27T22:16:38.830Z,6.30
2023-01-27T22:19:08.161Z,5.95
2023-01-27T22:21:35.286Z,5.70
2023-01-27T22:24:02.534Z,5.75
2023-01-27T22:26:32.208Z,4.55
2023-01-27T22:28:59.241Z,4.63
2023-01-27T22:31:26.422Z,4.90
2023-01-27T22:33:54.340Z,4.70
2023-01-27T22:36:21.484Z,4.95
2023-01-27T22:38:51.061Z,5.20
2023-01-27T22:41:18.198Z,5.45
2023-01-27T22:43:45.347Z,4.63
2023-01-27T22:46:14.873Z,4.45
2023-01-27T22:48:42.185Z,5.10
2023-01-27T22:51:09.320Z,4.75
2023-01-27T22:53:36.512Z,5.07
2023-01-27T22:56:04.716Z,4.97
2023-01-27T22:58:34.745Z,5.10
2023-01-27T23:01:08.483Z,5.18
2023-01-27T23:03:35.650Z,4.40
2023-01-27T23:06:10.763Z,4.68
2023-01-27T23:08:37.896Z,5.50
2023-01-27T23:11:06.701Z,5.13
2023-01-27T23:13:35.118Z,5.40
2023-01-27T23:16:02.277Z,5.88
2023-01-27T23:18:31.896Z,5.18
2023-01-27T23:21:06.447Z,5.53
2023-01-27T23:23:39.038Z,5.00
2023-01-27T23:26:08.950Z,5.20
2023-01-27T23:28:38.531Z,6.25
2023-01-27T23:31:14.541Z,5.90
2023-01-27T23:33:48.126Z,5.53
2023-01-27T23:36:15.325Z,5.65
2023-01-27T23:38:42.541Z,5.80
2023-01-27T23:41:14.540Z,5.38
2023-01-27T23:43:41.702Z,5.60
2023-01-27T23:46:08.941Z,4.63
2023-01-27T23:48:36.043Z,5.32
2023-01-27T23:51:13.244Z,5.55
2023-01-27T23:53:40.341Z,6.22
2023-01-27T23:56:09.389Z,6.15
2023-01-27T23:58:36.490Z,6.07
